createdAt,value
2018-09-25T00:00:21.368Z,0.00
2018-09-25T00:01:21.362Z,0.00
2018-09-25T00:02:21.381Z,0.00
2018-09-25T00:03:21.353Z,0.00
2018-09-25T00:04:21.352Z,0.00
2018-09-25T00:05:21.364Z,0.00
2018-09-25T00:06:21.375Z,0.00
2018-09-25T00:07:21.292Z,0.00
2018-09-25T00:08:21.293Z,0.00
2018-09-25T00:09:21.291Z,0.00
2018-09-25T00:10:21.364Z,0.00
2018-09-25T00:11:21.250Z,0.00
2018-09-25T00:12:21.243Z,0.00
2018-09-25T00:13:21.233Z,0.00
2018-09-25T00:14:21.236Z,0.00
2018-09-25T00:15:21.211Z,0.00
2018-09-25T00:16:21.241Z,0.00
2018-09-25T00:17:21.187Z,0.00
2018-09-25T00:18:21.178Z,0.00
2018-09-25T00:19:21.183Z,0.00
2018-09-25T00:20:21.156Z,0.00
2018-09-25T00:21:21.152Z,0.00
2018-09-25T00:22:21.168Z,0.00
2018-09-25T00:23:21.122Z,0.00
2018-09-25T00:24:21.132Z,0.00
2018-09-25T00:25:21.104Z,0.00
2018-09-25T00:26:21.091Z,0.00
2018-09-25T00:27:21.079Z,0.00
2018-09-25T00:28:21.105Z,0.00
2018-09-25T00:29:21.078Z,0.00
2018-09-25T00:30:21.048Z,0.00
2018-09-25T00:31:21.041Z,0.00
2018-09-25T00:32:21.026Z,0.00
2018-09-25T00:33:21.022Z,0.00
2018-09-25T00:34:21.059Z,0.00
2018-09-25T00:35:21.013Z,0.00
2018-09-25T00:36:20.985Z,0.00
2018-09-25T00:37:20.980Z,0.00
2018-09-25T00:38:20.964Z,0.00
2018-09-25T00:39:20.956Z,0.00
2018-09-25T00:40:20.998Z,0.00
2018-09-25T00:41:20.936Z,0.00
2018-09-25T00:42:20.926Z,0.00
2018-09-25T00:43:20.910Z,0.00
2018-09-25T00:44:20.904Z,0.00
2018-09-25T00:45:20.999Z,0.00
2018-09-25T00:46:20.925Z,0.00
2018-09-25T00:47:20.870Z,0.00
2018-09-25T00:48:20.857Z,0.00
2018-09-25T00:49:20.846Z,0.00
2018-09-25T00:50:20.852Z,0.00
2018-09-25T00:51:20.826Z,0.00
2018-09-25T00:52:20.856Z,0.00
2018-09-25T00:53:20.802Z,0.00
2018-09-25T00:54:20.800Z,0.00
2018-09-25T00:55:20.803Z,0.00
2018-09-25T00:56:20.774Z,0.00
2018-09-25T00:57:20.763Z,0.00
2018-09-25T00:58:20.793Z,0.00
2018-09-25T00:59:20.740Z,0.00
2018-09-25T01:00:20.746Z,0.00
2018-09-25T01:01:20.718Z,0.00
2018-09-25T01:02:20.707Z,0.00
2018-09-25T01:03:20.696Z,0.00
2018-09-25T01:04:20.730Z,0.00
2018-09-25T01:05:20.694Z,0.00
2018-09-25T01:06:20.670Z,0.00
2018-09-25T01:07:20.660Z,0.00
2018-09-25T01:08:20.644Z,0.00
2018-09-25T01:09:20.668Z,0.00
2018-09-25T01:10:20.678Z,0.00
2018-09-25T01:11:20.620Z,0.00
2018-09-25T01:12:20.604Z,0.00
2018-09-25T01:13:20.592Z,0.00
2018-09-25T01:14:20.583Z,0.00
2018-09-25T01:15:20.587Z,0.00
2018-09-25T01:16:20.602Z,0.00
2018-09-25T01:17:20.554Z,0.00
2018-09-25T01:18:20.536Z,0.00
2018-09-25T01:19:20.539Z,0.00
2018-09-25T01:20:20.538Z,0.00
2018-09-25T01:21:20.506Z,0.00
2018-09-25T01:22:20.518Z,0.00
2018-09-25T01:23:20.488Z,0.00
2018-09-25T01:24:20.474Z,0.00
2018-09-25T01:25:20.490Z,0.00
2018-09-25T01:26:20.452Z,0.00
2018-09-25T01:27:20.439Z,0.00
2018-09-25T01:28:20.492Z,0.00
2018-09-25T01:29:20.423Z,0.00
2018-09-25T01:30:20.456Z,0.00
2018-09-25T01:31:20.399Z,0.00
2018-09-25T01:32:20.389Z,0.00
2018-09-25T01:33:20.377Z,0.00
2018-09-25T01:34:20.390Z,0.00
2018-09-25T01:35:20.430Z,0.00
2018-09-25T01:36:20.354Z,0.00
2018-09-25T01:37:20.354Z,0.00
2018-09-25T01:38:20.349Z,0.00
2018-09-25T01:39:20.362Z,0.00
2018-09-25T01:40:20.352Z,0.00
2018-09-25T01:41:20.293Z,0.00
2018-09-25T01:42:20.303Z,0.00
2018-09-25T01:43:20.272Z,0.00
2018-09-25T01:44:20.262Z,0.00
2018-09-25T01:45:20.249Z,0.00
2018-09-25T01:46:20.258Z,0.00
2018-09-25T01:47:20.278Z,0.00
2018-09-25T01:48:20.217Z,0.00
2018-09-25T01:49:20.209Z,0.00
2018-09-25T01:50:20.204Z,0.00
2018-09-25T01:51:20.199Z,0.00
2018-09-25T01:52:20.178Z,0.00
2018-09-25T01:53:20.218Z,0.00
2018-09-25T01:54:20.154Z,0.00
2018-09-25T01:55:20.141Z,0.00
2018-09-25T01:56:20.151Z,0.00
2018-09-25T01:57:20.127Z,0.00
2018-09-25T01:58:20.110Z,0.00
2018-09-25T01:59:20.128Z,0.00
2018-09-25T02:00:20.089Z,0.00
2018-09-25T02:01:20.096Z,0.00
2018-09-25T02:02:20.068Z,0.00
2018-09-25T02:03:20.058Z,0.00
2018-09-25T02:04:20.048Z,0.00
2018-09-25T02:05:20.065Z,0.00
2018-09-25T02:06:20.096Z,0.00
2018-09-25T02:07:20.015Z,0.00
2018-09-25T02:08:20.001Z,0.00
2018-09-25T02:09:19.993Z,0.00
2018-09-25T02:10:19.981Z,0.00
2018-09-25T02:11:20.028Z,0.00
2018-09-25T02:12:19.959Z,0.00
2018-09-25T02:13:19.952Z,0.00
2018-09-25T02:14:19.947Z,0.00
2018-09-25T02:15:19.929Z,0.00
2018-09-25T02:16:19.938Z,0.00
2018-09-25T02:17:19.946Z,0.00
2018-09-25T02:18:19.899Z,0.00
2018-09-25T02:19:19.891Z,0.00
2018-09-25T02:20:19.880Z,0.00
2018-09-25T02:21:19.884Z,0.00
2018-09-25T02:22:19.939Z,0.00
2018-09-25T02:23:19.878Z,0.00
2018-09-25T02:24:19.837Z,0.00
2018-09-25T02:25:19.845Z,0.00
2018-09-25T02:26:19.830Z,0.00
2018-09-25T02:27:19.804Z,0.00
2018-09-25T02:28:19.797Z,0.00
2018-09-25T02:29:19.835Z,0.00
2018-09-25T02:30:19.776Z,0.00
2018-09-25T02:31:19.778Z,0.00
2018-09-25T02:32:19.756Z,0.00
2018-09-25T02:33:19.741Z,0.00
2018-09-25T02:34:19.732Z,0.00
2018-09-25T02:35:19.766Z,0.00
2018-09-25T02:36:19.740Z,0.00
2018-09-25T02:37:19.702Z,0.00
2018-09-25T02:38:19.696Z,0.00
2018-09-25T02:39:19.677Z,0.00
2018-09-25T02:40:19.668Z,0.00
2018-09-25T02:41:19.694Z,0.00
2018-09-25T02:42:19.681Z,0.00
2018-09-25T02:43:19.637Z,0.00
2018-09-25T02:44:19.632Z,0.00
2018-09-25T02:45:19.716Z,0.00
2018-09-25T02:46:19.605Z,0.00
2018-09-25T02:47:19.639Z,0.00
2018-09-25T02:48:19.619Z,0.00
2018-09-25T02:49:19.575Z,0.00
2018-09-25T02:50:19.564Z,0.00
2018-09-25T02:51:19.550Z,0.00
2018-09-25T02:52:19.555Z,0.00
2018-09-25T02:53:19.556Z,0.00
2018-09-25T02:54:19.518Z,0.00
2018-09-25T02:55:19.508Z,0.00
2018-09-25T02:56:19.505Z,0.00
2018-09-25T02:57:19.518Z,0.00
2018-09-25T02:58:19.479Z,0.00
2018-09-25T02:59:19.500Z,0.00
2018-09-25T03:00:19.466Z,0.00
2018-09-25T03:01:19.478Z,0.00
2018-09-25T03:02:19.454Z,0.00
2018-09-25T03:03:19.424Z,0.00
2018-09-25T03:04:19.466Z,0.00
2018-09-25T03:05:19.445Z,0.00
2018-09-25T03:06:19.392Z,0.00
2018-09-25T03:07:19.409Z,0.00
2018-09-25T03:08:19.373Z,0.00
2018-09-25T03:09:19.363Z,0.00
2018-09-25T03:10:19.361Z,0.00
2018-09-25T03:11:19.395Z,0.00
2018-09-25T03:12:19.346Z,0.00
2018-09-25T03:13:19.326Z,0.00
2018-09-25T03:14:19.314Z,0.00
2018-09-25T03:15:19.302Z,0.00
2018-09-25T03:16:19.288Z,0.00
2018-09-25T03:17:19.338Z,0.00
2018-09-25T03:18:19.268Z,0.00
2018-09-25T03:19:19.322Z,0.00
2018-09-25T03:20:19.244Z,0.00
2018-09-25T03:21:19.234Z,0.00
2018-09-25T03:22:19.224Z,0.00
2018-09-25T03:23:19.285Z,0.00
2018-09-25T03:24:19.205Z,0.00
2018-09-25T03:25:19.199Z,0.00
2018-09-25T03:26:19.190Z,0.00
2018-09-25T03:27:19.175Z,0.00
2018-09-25T03:28:19.225Z,0.00
2018-09-25T03:29:19.194Z,0.00
2018-09-25T03:30:19.170Z,0.00
2018-09-25T03:31:19.132Z,0.00
2018-09-25T03:32:19.120Z,0.00
2018-09-25T03:33:19.163Z,0.00
2018-09-25T03:34:19.104Z,0.00
2018-09-25T03:35:19.130Z,0.00
2018-09-25T03:36:19.076Z,0.00
2018-09-25T03:37:19.065Z,0.00
2018-09-25T03:38:19.070Z,0.00
2018-09-25T03:39:19.049Z,0.00
2018-09-25T03:40:19.039Z,0.00
2018-09-25T03:41:19.081Z,0.00
2018-09-25T03:42:19.017Z,0.00
2018-09-25T03:43:19.069Z,0.00
2018-09-25T03:44:18.994Z,0.00
2018-09-25T03:45:18.980Z,0.00
2018-09-25T03:46:19.039Z,0.00
2018-09-25T03:47:18.985Z,0.00
2018-09-25T03:48:18.964Z,0.00
2018-09-25T03:49:18.944Z,0.00
2018-09-25T03:50:18.928Z,0.00
2018-09-25T03:51:18.924Z,0.00
2018-09-25T03:52:18.909Z,0.00
2018-09-25T03:53:18.952Z,0.00
2018-09-25T03:54:18.886Z,0.00
2018-09-25T03:55:18.891Z,0.00
2018-09-25T03:56:18.868Z,0.00
2018-09-25T03:57:18.858Z,0.00
2018-09-25T03:58:18.871Z,0.00
2018-09-25T03:59:18.931Z,0.00
2018-09-25T04:00:18.825Z,0.00
2018-09-25T04:01:18.825Z,0.00
2018-09-25T04:02:18.811Z,0.00
2018-09-25T04:03:18.798Z,0.00
2018-09-25T04:04:18.798Z,0.00
2018-09-25T04:05:18.807Z,0.00
2018-09-25T04:06:18.824Z,0.00
2018-09-25T04:07:18.756Z,0.00
2018-09-25T04:08:18.740Z,0.00
2018-09-25T04:09:18.763Z,0.00
2018-09-25T04:10:18.720Z,0.00
2018-09-25T04:11:18.771Z,0.00
2018-09-25T04:12:18.704Z,0.00
2018-09-25T04:13:18.697Z,0.00
2018-09-25T04:14:18.693Z,0.00
2018-09-25T04:15:18.668Z,0.00
2018-09-25T04:16:18.658Z,0.00
2018-09-25T04:17:18.677Z,0.00
2018-09-25T04:18:18.637Z,0.00
2018-09-25T04:19:18.644Z,0.00
2018-09-25T04:20:18.615Z,0.00
2018-09-25T04:21:18.604Z,0.00
2018-09-25T04:22:18.592Z,0.00
2018-09-25T04:23:18.625Z,0.00
2018-09-25T04:24:18.595Z,0.00
2018-09-25T04:25:18.559Z,0.00
2018-09-25T04:26:18.553Z,0.00
2018-09-25T04:27:18.545Z,0.00
2018-09-25T04:28:18.609Z,0.00
2018-09-25T04:29:18.581Z,0.00
2018-09-25T04:30:18.509Z,0.00
2018-09-25T04:31:18.498Z,0.00
2018-09-25T04:32:18.486Z,0.00
2018-09-25T04:33:18.478Z,0.00
2018-09-25T04:34:18.485Z,0.00
2018-09-25T04:35:18.496Z,0.00
2018-09-25T04:36:18.446Z,0.00
2018-09-25T04:37:18.438Z,0.00
2018-09-25T04:38:18.425Z,0.00
2018-09-25T04:39:18.427Z,0.00
2018-09-25T04:40:18.401Z,0.00
2018-09-25T04:41:18.444Z,0.00
2018-09-25T04:42:18.382Z,0.00
2018-09-25T04:43:18.371Z,0.00
2018-09-25T04:44:18.462Z,0.00
2018-09-25T04:45:18.350Z,0.00
2018-09-25T04:46:18.336Z,0.00
2018-09-25T04:47:18.360Z,0.00
2018-09-25T04:48:18.318Z,0.00
2018-09-25T04:49:18.309Z,0.00
2018-09-25T04:50:18.314Z,0.00
2018-09-25T04:51:18.289Z,0.00
2018-09-25T04:52:18.314Z,0.00
2018-09-25T04:53:18.267Z,0.00
2018-09-25T04:54:18.252Z,0.00
2018-09-25T04:55:18.265Z,0.00
2018-09-25T04:56:18.234Z,0.00
2018-09-25T04:57:18.223Z,0.00
2018-09-25T04:58:18.249Z,0.00
2018-09-25T04:59:18.199Z,0.00
2018-09-25T05:00:18.208Z,0.00
2018-09-25T05:01:18.179Z,0.00
2018-09-25T05:02:18.168Z,0.00
2018-09-25T05:03:18.200Z,0.00
2018-09-25T05:04:18.194Z,0.00
2018-09-25T05:05:18.152Z,0.00
2018-09-25T05:06:18.125Z,0.00
2018-09-25T05:07:18.172Z,0.00
2018-09-25T05:08:18.107Z,0.00
2018-09-25T05:09:18.096Z,0.00
2018-09-25T05:10:18.329Z,5.62
2018-09-25T05:11:18.075Z,5.62
2018-09-25T05:12:18.064Z,5.62
2018-09-25T05:13:18.056Z,5.62
2018-09-25T05:14:18.047Z,5.62
2018-09-25T05:15:18.049Z,5.62
2018-09-25T05:16:18.039Z,11.25
2018-09-25T05:17:18.010Z,11.25
2018-09-25T05:18:18.054Z,11.25
2018-09-25T05:19:17.990Z,11.25
2018-09-25T05:20:17.991Z,11.25
2018-09-25T05:21:17.971Z,16.88
2018-09-25T05:22:17.994Z,16.88
2018-09-25T05:23:17.970Z,16.88
2018-09-25T05:24:17.944Z,22.50
2018-09-25T05:25:17.947Z,22.50
2018-09-25T05:26:17.915Z,22.50
2018-09-25T05:27:17.904Z,22.50
2018-09-25T05:28:17.949Z,28.12
2018-09-25T05:29:17.888Z,28.12
2018-09-25T05:30:17.875Z,28.12
2018-09-25T05:31:17.881Z,33.75
2018-09-25T05:32:17.855Z,33.75
2018-09-25T05:33:17.847Z,33.75
2018-09-25T05:34:17.859Z,39.38
2018-09-25T05:35:17.821Z,39.38
2018-09-25T05:36:17.831Z,39.38
2018-09-25T05:37:17.805Z,45.00
2018-09-25T05:38:17.790Z,45.00
2018-09-25T05:39:17.778Z,50.62
2018-09-25T05:40:17.830Z,50.62
2018-09-25T05:41:17.775Z,50.62
2018-09-25T05:42:17.749Z,56.25
2018-09-25T05:43:17.736Z,56.25
2018-09-25T05:44:17.724Z,56.25
2018-09-25T05:45:17.714Z,61.88
2018-09-25T05:46:18.145Z,61.88
2018-09-25T05:47:17.693Z,61.88
2018-09-25T05:48:17.710Z,67.50
2018-09-25T05:49:17.677Z,67.50
2018-09-25T05:50:17.661Z,73.12
2018-09-25T05:51:17.667Z,73.12
2018-09-25T05:52:17.713Z,73.12
2018-09-25T05:53:17.636Z,78.75
2018-09-25T05:54:17.619Z,84.38
2018-09-25T05:55:17.612Z,84.38
2018-09-25T05:56:17.619Z,90.00
2018-09-25T05:57:17.589Z,90.00
2018-09-25T05:58:17.617Z,95.62
2018-09-25T05:59:17.576Z,95.62
2018-09-25T06:00:17.556Z,101.25
2018-09-25T06:01:17.572Z,106.88
2018-09-25T06:02:17.537Z,106.88
2018-09-25T06:03:17.526Z,106.88
2018-09-25T06:04:17.543Z,112.50
2018-09-25T06:05:17.510Z,118.12
2018-09-25T06:06:17.493Z,118.12
2018-09-25T06:07:17.505Z,123.75
2018-09-25T06:08:17.474Z,123.75
2018-09-25T06:09:17.513Z,129.38
2018-09-25T06:10:17.488Z,135.00
2018-09-25T06:11:17.445Z,140.62
2018-09-25T06:12:17.444Z,140.62
2018-09-25T06:13:17.425Z,146.25
2018-09-25T06:14:17.412Z,168.75
2018-09-25T06:15:17.450Z,174.38
2018-09-25T06:16:17.391Z,168.75
2018-09-25T06:17:17.395Z,168.75
2018-09-25T06:18:17.368Z,174.38
2018-09-25T06:19:17.359Z,191.25
2018-09-25T06:20:17.346Z,196.88
2018-09-25T06:21:17.372Z,202.50
2018-09-25T06:22:17.341Z,202.50
2018-09-25T06:23:17.316Z,202.50
2018-09-25T06:24:17.305Z,202.50
2018-09-25T06:25:17.293Z,202.50
2018-09-25T06:26:17.284Z,202.50
2018-09-25T06:27:17.322Z,213.75
2018-09-25T06:28:17.264Z,225.00
2018-09-25T06:29:17.253Z,230.62
2018-09-25T06:30:17.241Z,230.62
2018-09-25T06:31:17.269Z,236.25
2018-09-25T06:32:17.242Z,241.88
2018-09-25T06:33:17.232Z,241.88
2018-09-25T06:34:17.377Z,241.88
2018-09-25T06:35:17.188Z,247.50
2018-09-25T06:36:17.180Z,247.50
2018-09-25T06:37:17.246Z,247.50
2018-09-25T06:38:17.157Z,247.50
2018-09-25T06:39:17.152Z,247.50
2018-09-25T06:40:17.189Z,247.50
2018-09-25T06:41:17.123Z,247.50
2018-09-25T06:42:17.141Z,253.12
2018-09-25T06:43:17.101Z,247.50
2018-09-25T06:44:17.095Z,253.12
2018-09-25T06:45:17.084Z,247.50
2018-09-25T06:46:17.119Z,247.50
2018-09-25T06:47:17.127Z,247.50
2018-09-25T06:48:17.067Z,247.50
2018-09-25T06:49:17.039Z,247.50
2018-09-25T06:50:17.033Z,247.50
2018-09-25T06:51:17.018Z,247.50
2018-09-25T06:52:17.045Z,247.50
2018-09-25T06:53:17.016Z,241.88
2018-09-25T06:54:16.985Z,241.88
2018-09-25T06:55:17.030Z,241.88
2018-09-25T06:56:16.965Z,241.88
2018-09-25T06:57:16.957Z,241.88
2018-09-25T06:58:16.983Z,241.88
2018-09-25T06:59:16.931Z,241.88
2018-09-25T07:00:16.924Z,241.88
2018-09-25T07:01:16.909Z,241.88
2018-09-25T07:02:16.901Z,241.88
2018-09-25T07:03:16.909Z,241.88
2018-09-25T07:04:16.918Z,241.88
2018-09-25T07:05:16.870Z,241.88
2018-09-25T07:06:16.855Z,247.50
2018-09-25T07:07:16.846Z,247.50
2018-09-25T07:08:16.852Z,247.50
2018-09-25T07:09:16.824Z,247.50
2018-09-25T07:10:16.882Z,247.50
2018-09-25T07:11:16.804Z,253.12
2018-09-25T07:12:16.793Z,253.12
2018-09-25T07:13:16.797Z,253.12
2018-09-25T07:14:16.770Z,253.12
2018-09-25T07:15:16.761Z,253.12
2018-09-25T07:16:16.805Z,253.12
2018-09-25T07:17:16.739Z,253.12
2018-09-25T07:18:16.741Z,258.75
2018-09-25T07:19:16.765Z,258.75
2018-09-25T07:20:16.706Z,258.75
2018-09-25T07:21:16.695Z,258.75
2018-09-25T07:22:16.899Z,258.75
2018-09-25T07:23:16.710Z,264.38
2018-09-25T07:24:16.721Z,264.38
2018-09-25T07:25:16.654Z,264.38
2018-09-25T07:26:16.640Z,264.38
2018-09-25T07:27:16.630Z,264.38
2018-09-25T07:28:16.619Z,264.38
2018-09-25T07:29:16.649Z,264.38
2018-09-25T07:30:16.597Z,270.00
2018-09-25T07:31:16.588Z,270.00
2018-09-25T07:32:16.582Z,270.00
2018-09-25T07:33:16.565Z,270.00
2018-09-25T07:34:16.571Z,275.62
2018-09-25T07:35:16.591Z,275.62
2018-09-25T07:36:16.535Z,275.62
2018-09-25T07:37:16.524Z,275.62
2018-09-25T07:38:16.514Z,275.62
2018-09-25T07:39:16.517Z,275.62
2018-09-25T07:40:16.494Z,281.25
2018-09-25T07:41:16.495Z,281.25
2018-09-25T07:42:16.472Z,281.25
2018-09-25T07:43:16.460Z,286.88
2018-09-25T07:44:16.465Z,286.88
2018-09-25T07:45:16.439Z,286.88
2018-09-25T07:46:16.428Z,292.50
2018-09-25T07:47:16.453Z,292.50
2018-09-25T07:48:16.413Z,292.50
2018-09-25T07:49:16.415Z,292.50
2018-09-25T07:50:16.388Z,298.12
2018-09-25T07:51:16.373Z,298.12
2018-09-25T07:52:16.400Z,298.12
2018-09-25T07:53:16.352Z,303.75
2018-09-25T07:54:16.357Z,303.75
2018-09-25T07:55:16.331Z,303.75
2018-09-25T07:56:16.321Z,303.75
2018-09-25T07:57:16.307Z,309.38
2018-09-25T07:58:16.335Z,309.38
2018-09-25T07:59:16.304Z,309.38
2018-09-25T08:00:16.275Z,315.00
2018-09-25T08:01:16.329Z,315.00
2018-09-25T08:02:16.254Z,315.00
2018-09-25T08:03:16.318Z,315.00
2018-09-25T08:04:16.530Z,315.00
2018-09-25T08:05:16.226Z,315.00
2018-09-25T08:06:16.211Z,320.62
2018-09-25T08:07:16.239Z,320.62
2018-09-25T08:08:16.192Z,320.62
2018-09-25T08:09:16.198Z,326.25
2018-09-25T08:10:16.204Z,326.25
2018-09-25T08:11:16.156Z,331.88
2018-09-25T08:12:16.146Z,331.88
2018-09-25T08:13:16.135Z,337.50
2018-09-25T08:14:16.162Z,343.12
2018-09-25T08:15:16.141Z,343.12
2018-09-25T08:16:16.140Z,348.75
2018-09-25T08:17:16.093Z,360.00
2018-09-25T08:18:16.080Z,354.38
2018-09-25T08:19:16.074Z,365.62
2018-09-25T08:20:16.077Z,376.88
2018-09-25T08:21:16.047Z,455.62
2018-09-25T08:22:16.077Z,928.12
2018-09-25T08:23:16.027Z,1366.88
2018-09-25T08:24:16.019Z,1411.88
2018-09-25T08:25:16.024Z,1434.38
2018-09-25T08:26:15.996Z,1456.88
2018-09-25T08:27:15.985Z,1485.00
2018-09-25T08:28:15.999Z,1507.50
2018-09-25T08:29:15.979Z,1501.88
2018-09-25T08:30:15.995Z,1518.75
2018-09-25T08:31:15.973Z,1575.00
2018-09-25T08:32:15.933Z,1631.25
2018-09-25T08:33:15.920Z,1670.62
2018-09-25T08:34:15.909Z,1665.00
2018-09-25T08:35:15.914Z,1648.12
2018-09-25T08:36:15.888Z,1597.50
2018-09-25T08:37:15.915Z,1636.88
2018-09-25T08:38:15.895Z,1693.12
2018-09-25T08:39:15.945Z,1738.12
2018-09-25T08:40:15.859Z,1749.38
2018-09-25T08:41:15.875Z,1777.50
2018-09-25T08:42:15.823Z,1732.50
2018-09-25T08:43:15.834Z,1755.00
2018-09-25T08:44:15.801Z,1822.50
2018-09-25T08:45:15.812Z,1822.50
2018-09-25T08:46:15.827Z,1788.75
2018-09-25T08:47:15.770Z,1800.00
2018-09-25T08:48:15.757Z,1468.12
2018-09-25T08:49:15.745Z,675.00
2018-09-25T08:50:15.861Z,781.88
2018-09-25T08:51:15.747Z,1507.50
2018-09-25T08:52:15.713Z,1816.88
2018-09-25T08:53:15.724Z,1850.62
2018-09-25T08:54:15.710Z,1890.00
2018-09-25T08:55:15.712Z,1861.88
2018-09-25T08:56:15.691Z,1923.75
2018-09-25T08:57:15.685Z,1912.50
2018-09-25T08:58:15.652Z,1918.12
2018-09-25T08:59:15.639Z,1957.50
2018-09-25T09:00:15.667Z,1878.75
2018-09-25T09:01:15.628Z,1912.50
2018-09-25T09:02:15.655Z,1974.38
2018-09-25T09:03:15.609Z,1996.88
2018-09-25T09:04:15.608Z,2081.25
2018-09-25T09:05:15.625Z,2047.50
2018-09-25T09:06:15.582Z,2030.62
2018-09-25T09:07:15.588Z,2092.50
2018-09-25T09:08:15.547Z,2036.25
2018-09-25T09:09:15.664Z,1991.25
2018-09-25T09:10:15.523Z,2058.75
2018-09-25T09:11:15.530Z,2103.75
2018-09-25T09:12:15.508Z,2115.00
2018-09-25T09:13:15.496Z,2160.00
2018-09-25T09:14:15.486Z,2160.00
2018-09-25T09:15:15.498Z,2126.25
2018-09-25T09:16:15.513Z,2154.38
2018-09-25T09:17:15.502Z,2148.75
2018-09-25T09:18:15.442Z,2199.38
2018-09-25T09:19:15.433Z,2255.62
2018-09-25T09:20:15.524Z,1816.88
2018-09-25T09:21:15.438Z,832.50
2018-09-25T09:22:15.413Z,950.62
2018-09-25T09:23:15.387Z,1923.75
2018-09-25T09:24:15.439Z,2188.12
2018-09-25T09:25:15.420Z,2199.38
2018-09-25T09:26:15.371Z,2216.25
2018-09-25T09:27:15.352Z,2216.25
2018-09-25T09:28:15.431Z,2255.62
2018-09-25T09:29:15.329Z,2306.25
2018-09-25T09:30:15.373Z,2250.00
2018-09-25T09:31:15.436Z,2176.88
2018-09-25T09:32:15.294Z,2205.00
2018-09-25T09:33:15.301Z,2216.25
2018-09-25T09:34:15.297Z,2238.75
2018-09-25T09:35:15.293Z,2199.38
2018-09-25T09:36:15.307Z,2143.12
2018-09-25T09:37:15.246Z,2126.25
2018-09-25T09:38:15.234Z,2148.75
2018-09-25T09:39:15.220Z,2210.62
2018-09-25T09:40:15.208Z,2250.00
2018-09-25T09:41:15.301Z,2261.25
2018-09-25T09:42:15.201Z,2272.50
2018-09-25T09:43:15.197Z,2323.12
2018-09-25T09:44:15.180Z,2283.75
2018-09-25T09:45:15.192Z,2221.88
2018-09-25T09:46:15.192Z,2115.00
2018-09-25T09:47:15.160Z,1181.25
2018-09-25T09:48:15.160Z,900.00
2018-09-25T09:49:15.128Z,1968.75
2018-09-25T09:50:15.166Z,2328.75
2018-09-25T09:51:15.133Z,2272.50
2018-09-25T09:52:15.096Z,2188.12
2018-09-25T09:53:15.065Z,2233.12
2018-09-25T09:54:15.083Z,2317.50
2018-09-25T09:55:15.052Z,2368.12
2018-09-25T09:56:15.113Z,2424.38
2018-09-25T09:57:15.034Z,2351.25
2018-09-25T09:58:15.048Z,2323.12
2018-09-25T09:59:15.012Z,2390.62
2018-09-25T10:00:15.003Z,2373.75
2018-09-25T10:01:14.996Z,2424.38
2018-09-25T10:02:14.976Z,2430.00
2018-09-25T10:03:14.971Z,2323.12
2018-09-25T10:04:14.958Z,1428.75
2018-09-25T10:05:14.944Z,877.50
2018-09-25T10:06:14.964Z,1850.62
2018-09-25T10:07:15.053Z,2463.75
2018-09-25T10:08:14.929Z,2531.25
2018-09-25T10:09:14.898Z,2424.38
2018-09-25T10:10:14.926Z,2390.62
2018-09-25T10:11:14.901Z,2334.38
2018-09-25T10:12:14.898Z,2328.75
2018-09-25T10:13:14.964Z,2418.75
2018-09-25T10:14:14.860Z,2430.00
2018-09-25T10:15:14.851Z,2418.75
2018-09-25T10:16:15.516Z,2081.25
2018-09-25T10:17:14.825Z,1018.12
2018-09-25T10:18:14.805Z,1513.12
2018-09-25T10:19:14.825Z,2413.12
2018-09-25T10:20:14.785Z,2385.00
2018-09-25T10:21:14.785Z,2148.75
2018-09-25T10:22:14.788Z,1867.50
2018-09-25T10:23:14.754Z,1670.62
2018-09-25T10:24:14.767Z,1614.38
2018-09-25T10:25:14.736Z,1428.75
2018-09-25T10:26:14.738Z,1361.25
2018-09-25T10:27:14.770Z,1299.38
2018-09-25T10:28:14.708Z,1226.25
2018-09-25T10:29:14.702Z,1063.12
2018-09-25T10:30:14.684Z,680.62
2018-09-25T10:31:14.687Z,551.25
2018-09-25T10:32:14.687Z,956.25
2018-09-25T10:33:14.647Z,2126.25
2018-09-25T10:34:14.756Z,2542.50
2018-09-25T10:35:14.631Z,2576.25
2018-09-25T10:36:14.618Z,2542.50
2018-09-25T10:37:14.629Z,2559.38
2018-09-25T10:38:14.596Z,2570.62
2018-09-25T10:39:14.592Z,1603.12
2018-09-25T10:40:14.575Z,1389.38
2018-09-25T10:41:14.606Z,2559.38
2018-09-25T10:42:14.573Z,2688.75
2018-09-25T10:43:14.544Z,2581.88
2018-09-25T10:44:14.542Z,2559.38
2018-09-25T10:45:14.547Z,2570.62
2018-09-25T10:46:14.549Z,2143.12
2018-09-25T10:47:14.521Z,1293.75
2018-09-25T10:48:14.492Z,2137.50
2018-09-25T10:49:14.498Z,2671.88
2018-09-25T10:50:14.557Z,2632.50
2018-09-25T10:51:14.453Z,2722.50
2018-09-25T10:52:14.471Z,2458.12
2018-09-25T10:53:14.429Z,1445.62
2018-09-25T10:54:14.422Z,1895.62
2018-09-25T10:55:14.464Z,2604.38
2018-09-25T10:56:14.528Z,2660.62
2018-09-25T10:57:14.404Z,2728.12
2018-09-25T10:58:14.398Z,2418.75
2018-09-25T10:59:14.416Z,1518.75
2018-09-25T11:00:14.391Z,1884.38
2018-09-25T11:01:14.499Z,2643.75
2018-09-25T11:02:14.395Z,2677.50
2018-09-25T11:03:14.424Z,1861.88
2018-09-25T11:04:14.332Z,1715.62
2018-09-25T11:05:14.342Z,2272.50
2018-09-25T11:06:14.299Z,2424.38
2018-09-25T11:07:14.315Z,1710.00
2018-09-25T11:08:14.300Z,1850.62
2018-09-25T11:09:14.267Z,2356.88
2018-09-25T11:10:14.288Z,2261.25
2018-09-25T11:11:14.275Z,1507.50
2018-09-25T11:12:14.293Z,776.25
2018-09-25T11:13:14.241Z,691.88
2018-09-25T11:14:14.208Z,1091.25
2018-09-25T11:15:14.206Z,1974.38
2018-09-25T11:16:14.209Z,2655.00
2018-09-25T11:17:14.200Z,618.75
2018-09-25T11:18:14.180Z,2671.88
2018-09-25T11:19:14.188Z,2244.38
2018-09-25T11:20:14.149Z,1344.38
2018-09-25T11:21:14.214Z,652.50
2018-09-25T11:22:14.164Z,450.00
2018-09-25T11:23:14.121Z,444.38
2018-09-25T11:24:14.117Z,438.75
2018-09-25T11:25:14.102Z,421.88
2018-09-25T11:26:14.086Z,388.12
2018-09-25T11:27:14.093Z,433.12
2018-09-25T11:28:14.089Z,427.50
2018-09-25T11:29:14.060Z,1951.88
2018-09-25T11:30:14.058Z,2593.12
2018-09-25T11:31:14.040Z,2025.00
2018-09-25T11:32:14.047Z,1546.88
2018-09-25T11:33:14.041Z,646.88
2018-09-25T11:34:14.007Z,399.38
2018-09-25T11:35:14.021Z,393.75
2018-09-25T11:36:14.000Z,382.50
2018-09-25T11:37:13.974Z,382.50
2018-09-25T11:38:14.001Z,393.75
2018-09-25T11:39:13.972Z,388.12
2018-09-25T11:40:13.941Z,371.25
2018-09-25T11:41:14.008Z,376.88
2018-09-25T11:42:13.946Z,585.00
2018-09-25T11:43:14.244Z,545.62
2018-09-25T11:44:13.894Z,354.38
2018-09-25T11:45:13.901Z,365.62
2018-09-25T11:46:13.946Z,354.38
2018-09-25T11:47:13.979Z,388.12
2018-09-25T11:48:13.892Z,450.00
2018-09-25T11:49:13.877Z,416.25
2018-09-25T11:50:13.840Z,410.62
2018-09-25T11:51:13.837Z,348.75
2018-09-25T11:52:13.857Z,354.38
2018-09-25T11:53:13.821Z,343.12
2018-09-25T11:54:13.823Z,961.88
2018-09-25T11:55:13.791Z,1417.50
2018-09-25T11:56:13.800Z,1479.38
2018-09-25T11:57:13.765Z,410.62
2018-09-25T11:58:13.816Z,360.00
2018-09-25T11:59:13.734Z,343.12
2018-09-25T12:00:13.731Z,303.75
2018-09-25T12:01:13.716Z,303.75
2018-09-25T12:02:13.778Z,298.12
2018-09-25T12:03:13.736Z,298.12
2018-09-25T12:04:13.695Z,292.50
2018-09-25T12:05:13.678Z,286.88
2018-09-25T12:06:13.682Z,286.88
2018-09-25T12:07:13.703Z,286.88
2018-09-25T12:08:13.679Z,286.88
2018-09-25T12:09:13.670Z,354.38
2018-09-25T12:10:13.642Z,292.50
2018-09-25T12:11:13.614Z,292.50
2018-09-25T12:12:13.604Z,286.88
2018-09-25T12:13:13.640Z,286.88
2018-09-25T12:14:13.596Z,281.25
2018-09-25T12:15:13.565Z,281.25
2018-09-25T12:16:13.568Z,281.25
2018-09-25T12:17:13.549Z,281.25
2018-09-25T12:18:13.576Z,281.25
2018-09-25T12:19:13.572Z,281.25
2018-09-25T12:20:13.539Z,331.88
2018-09-25T12:21:13.503Z,697.50
2018-09-25T12:22:13.611Z,939.38
2018-09-25T12:23:13.573Z,286.88
2018-09-25T12:24:13.473Z,281.25
2018-09-25T12:25:13.560Z,286.88
2018-09-25T12:26:13.464Z,281.25
2018-09-25T12:27:13.476Z,281.25
2018-09-25T12:28:13.527Z,286.88
2018-09-25T12:29:13.440Z,275.62
2018-09-25T12:30:13.403Z,303.75
2018-09-25T12:31:13.418Z,270.00
2018-09-25T12:32:13.437Z,270.00
2018-09-25T12:33:13.394Z,270.00
2018-09-25T12:34:13.389Z,270.00
2018-09-25T12:35:13.348Z,264.38
2018-09-25T12:36:13.350Z,264.38
2018-09-25T12:37:13.326Z,264.38
2018-09-25T12:38:13.323Z,264.38
2018-09-25T12:39:13.324Z,264.38
2018-09-25T12:40:13.321Z,258.75
2018-09-25T12:41:13.421Z,258.75
2018-09-25T12:42:13.268Z,264.38
2018-09-25T12:43:13.258Z,258.75
2018-09-25T12:44:13.261Z,264.38